createdAt,value
2022-11-21T00:02:17.618Z,99930.66
2022-11-21T00:07:19.436Z,99930.16
2022-11-21T00:12:21.448Z,99932.94
2022-11-21T00:17:23.689Z,99944.97
2022-11-21T00:22:25.564Z,99938.72
2022-11-21T00:27:27.635Z,99911.50
2022-11-21T00:32:29.686Z,99918.44
2022-11-21T00:37:34.695Z,99923.72
2022-11-21T00:42:36.490Z,99922.88
2022-11-21T00:47:38.504Z,99900.63
2022-11-21T00:52:40.550Z,99912.34
2022-11-21T00:57:42.427Z,99911.34
2022-11-21T01:02:44.717Z,99909.81
2022-11-21T01:07:48.755Z,99910.47
2022-11-21T01:12:50.600Z,99917.59
2022-11-21T01:17:52.360Z,99911.72
2022-11-21T01:22:54.325Z,99910.94
2022-11-21T01:27:56.259Z,99913.03
2022-11-21T01:32:58.148Z,99923.66
2022-11-21T01:38:00.163Z,99922.69
2022-11-21T01:43:14.143Z,99924.50
2022-11-21T01:48:16.221Z,99907.94
2022-11-21T01:53:18.715Z,99917.59
2022-11-21T01:58:22.021Z,99917.78
2022-11-21T02:03:27.263Z,99914.25
2022-11-21T02:08:30.064Z,99911.50
2022-11-21T02:13:31.818Z,99909.63
2022-11-21T02:18:33.993Z,99919.09
2022-11-21T02:24:04.157Z,99916.81
2022-11-21T02:29:06.080Z,99919.31
2022-11-21T02:34:07.945Z,99917.03
2022-11-21T02:39:34.534Z,99909.81
2022-11-21T02:44:49.330Z,99916.06
2022-11-21T02:50:19.715Z,99921.28
2022-11-21T02:55:22.065Z,99919.41
2022-11-21T03:00:24.829Z,99908.69
2022-11-21T03:05:26.714Z,99903.63
2022-11-21T03:10:28.568Z,99914.38
2022-11-21T03:15:32.788Z,99917.78
2022-11-21T03:20:35.625Z,99920.22
2022-11-21T03:25:37.454Z,99921.19
2022-11-21T03:30:39.347Z,99921.19
2022-11-21T03:35:41.180Z,99920.53
2022-11-21T03:40:43.096Z,99910.66
2022-11-21T03:45:48.321Z,99906.97
2022-11-21T03:50:50.172Z,99902.50
2022-11-21T03:55:52.048Z,99908.69
2022-11-21T04:00:53.842Z,99917.66
2022-11-21T04:05:55.750Z,99911.59
2022-11-21T04:10:57.683Z,99908.69
2022-11-21T04:15:59.420Z,99914.94
2022-11-21T04:21:06.669Z,99919.19
2022-11-21T04:26:08.631Z,99914.25
2022-11-21T04:31:11.412Z,99909.91
2022-11-21T04:36:13.524Z,99907.34
2022-11-21T04:41:15.596Z,99903.00
2022-11-21T04:46:17.356Z,99913.41
2022-11-21T04:51:19.311Z,99913.31
2022-11-21T04:56:21.087Z,99906.28
2022-11-21T05:01:23.210Z,99900.72
2022-11-21T05:06:25.008Z,99899.00
2022-11-21T05:11:45.167Z,99905.16
2022-11-21T05:16:47.019Z,99891.03
2022-11-21T05:21:48.907Z,99894.75
2022-11-21T05:26:50.700Z,99883.47
2022-11-21T05:31:52.606Z,99884.06
2022-11-21T05:37:00.736Z,99884.88
2022-11-21T05:42:03.465Z,99898.16
2022-11-21T05:47:05.355Z,99905.91
2022-11-21T05:52:07.123Z,99909.69
2022-11-21T05:57:08.960Z,99893.06
2022-11-21T06:02:29.398Z,99883.25
2022-11-21T06:07:31.299Z,99864.31
2022-11-21T06:12:33.163Z,99863.19
2022-11-21T06:17:35.148Z,99859.72
2022-11-21T06:22:37.065Z,99859.03
2022-11-21T06:27:38.865Z,99856.63
2022-11-21T06:32:40.843Z,99857.84
2022-11-21T06:37:43.006Z,99846.50
2022-11-21T06:42:45.024Z,99846.28
2022-11-21T06:47:47.121Z,99853.00
2022-11-21T06:52:49.152Z,99846.84
2022-11-21T06:57:51.006Z,99846.19
2022-11-21T07:02:52.980Z,99843.25
2022-11-21T07:08:02.836Z,99843.25
2022-11-21T07:13:23.297Z,99829.03
2022-11-21T07:18:27.028Z,99833.41
2022-11-21T07:23:29.690Z,99826.78
2022-11-21T07:28:32.404Z,99820.44
2022-11-21T07:33:34.579Z,99823.84
2022-11-21T07:38:36.413Z,99825.53
2022-11-21T07:43:38.600Z,99823.66
2022-11-21T07:48:40.321Z,99816.56
2022-11-21T07:53:42.221Z,99812.19
2022-11-21T07:58:44.160Z,99801.50
2022-11-21T08:03:46.330Z,99803.47
2022-11-21T08:08:51.859Z,99794.38
2022-11-21T08:13:54.009Z,99797.03
2022-11-21T08:18:56.372Z,99791.94
2022-11-21T08:23:58.395Z,99802.34
2022-11-21T08:29:00.653Z,99798.63
2022-11-21T08:34:02.905Z,99795.44
2022-11-21T08:39:05.524Z,99779.50
2022-11-21T08:44:13.691Z,99771.47
2022-11-21T08:49:16.236Z,99771.34
2022-11-21T08:54:23.021Z,99767.19
2022-11-21T08:59:25.180Z,99773.91
2022-11-21T09:04:27.624Z,99766.06
2022-11-21T09:09:29.742Z,99750.97
2022-11-21T09:14:50.473Z,99753.94
2022-11-21T09:19:53.028Z,99744.84
2022-11-21T09:24:55.005Z,99736.91
2022-11-21T09:29:57.088Z,99727.97
2022-11-21T09:34:58.890Z,99720.00
2022-11-21T09:40:01.583Z,99722.59
2022-11-21T09:45:15.999Z,99715.38
2022-11-21T09:50:35.655Z,99716.44
2022-11-21T09:55:47.300Z,99706.84
2022-11-21T10:00:52.346Z,99700.69
2022-11-21T10:06:18.533Z,99704.84
2022-11-21T10:12:18.980Z,99697.94
2022-11-21T10:17:36.132Z,99687.34
2022-11-21T10:22:51.592Z,99681.47
2022-11-21T10:28:03.129Z,99673.50
2022-11-21T10:33:11.535Z,99658.94
2022-11-21T10:38:22.807Z,99650.75
2022-11-21T10:43:54.460Z,99633.91
2022-11-21T10:49:00.235Z,99628.31
2022-11-21T10:54:26.401Z,99622.25
2022-11-21T10:59:31.461Z,99617.88
2022-11-21T11:04:43.747Z,99618.75
2022-11-21T11:09:48.204Z,99598.59
2022-11-21T11:14:52.895Z,99586.16
2022-11-21T11:20:05.793Z,99583.88
2022-11-21T11:25:09.925Z,99571.09
2022-11-21T11:30:16.549Z,99561.31
2022-11-21T11:35:23.764Z,99555.63
2022-11-21T11:40:41.050Z,99539.91
2022-11-21T11:46:23.985Z,99522.59
2022-11-21T11:51:30.765Z,99502.34
2022-11-21T11:56:37.337Z,99491.50
2022-11-21T12:01:45.775Z,99475.69
2022-11-21T12:08:05.885Z,99457.25
2022-11-21T12:12:37.407Z,99442.94
2022-11-21T12:18:00.160Z,99435.50
2022-11-21T12:23:03.280Z,99423.94
2022-11-21T12:28:17.564Z,99413.63
2022-11-21T12:33:23.620Z,99397.09
2022-11-21T12:38:53.344Z,99393.47
2022-11-21T12:44:10.122Z,99379.88
2022-11-21T12:50:03.255Z,99367.69
2022-11-21T12:55:08.236Z,99362.38
2022-11-21T13:00:16.479Z,99347.63
2022-11-21T13:05:25.585Z,99339.69
2022-11-21T13:10:28.397Z,99336.09
2022-11-21T13:15:42.003Z,99301.50
2022-11-21T13:20:52.359Z,99303.28
2022-11-21T13:25:54.291Z,99288.34
2022-11-21T13:30:57.798Z,99269.69
2022-11-21T13:36:00.351Z,99267.13
2022-11-21T13:41:21.222Z,99255.44
2022-11-21T13:47:00.870Z,99229.91
2022-11-21T13:52:11.825Z,99219.06
2022-11-21T13:57:25.814Z,99209.41
2022-11-21T14:02:57.110Z,99211.34
2022-11-21T14:08:23.716Z,99208.69
2022-11-21T14:13:34.934Z,99201.66
2022-11-21T14:18:39.397Z,99195.09
2022-11-21T14:23:44.652Z,99185.41
2022-11-21T14:28:47.654Z,99154.44
2022-11-21T14:33:50.444Z,99142.03
2022-11-21T14:39:20.961Z,99129.72
2022-11-21T14:44:18.110Z,99120.09
2022-11-21T14:49:23.628Z,99123.59
2022-11-21T14:54:29.963Z,99117.53
2022-11-21T14:59:39.180Z,99104.03
2022-11-21T15:04:42.939Z,99097.91
2022-11-21T15:10:26.968Z,99089.00
2022-11-21T15:15:21.720Z,99071.59
2022-11-21T15:20:24.042Z,99064.88
2022-11-21T15:25:31.650Z,99057.38
2022-11-21T15:30:34.723Z,99045.09
2022-11-21T15:35:47.134Z,99022.78
2022-11-21T15:40:59.543Z,99021.97
2022-11-21T15:46:12.074Z,98999.88
2022-11-21T15:51:14.592Z,98992.66
2022-11-21T15:56:22.787Z,98970.09
2022-11-21T16:01:27.093Z,98934.28
2022-11-21T16:06:29.529Z,98937.31
2022-11-21T16:11:38.124Z,98941.03
2022-11-21T16:16:43.494Z,98966.59
2022-11-21T16:21:45.865Z,98944.06
2022-11-21T16:26:49.536Z,98942.25
2022-11-21T16:31:52.667Z,98933.47
2022-11-21T16:36:55.876Z,98927.56
2022-11-21T16:41:57.839Z,98904.63
2022-11-21T16:47:03.733Z,98908.03
2022-11-21T16:52:10.869Z,98889.84
2022-11-21T16:57:12.849Z,98875.13
2022-11-21T17:02:16.250Z,98866.06
2022-11-21T17:07:19.059Z,98858.25
2022-11-21T17:12:21.515Z,98844.75
2022-11-21T17:17:23.722Z,98845.22
2022-11-21T17:22:25.934Z,98835.59
2022-11-21T17:27:28.258Z,98839.91
2022-11-21T17:32:30.367Z,98837.97
2022-11-21T17:37:32.468Z,98836.91
2022-11-21T17:42:35.035Z,98834.03
2022-11-21T17:47:41.539Z,98845.94
2022-11-21T17:52:43.710Z,98836.78
2022-11-21T17:57:47.770Z,98833.88
2022-11-21T18:02:50.092Z,98805.31
2022-11-21T18:07:52.526Z,98801.59
2022-11-21T18:12:55.956Z,98790.13
2022-11-21T18:17:58.241Z,98786.41
2022-11-21T18:23:00.494Z,98779.63
2022-11-21T18:28:03.495Z,98771.78
2022-11-21T18:33:05.409Z,98767.47
2022-11-21T18:38:08.060Z,98765.66
2022-11-21T18:43:11.184Z,98754.81
2022-11-21T18:48:14.420Z,98758.94
2022-11-21T18:53:16.881Z,98748.53
2022-11-21T18:58:18.954Z,98735.28
2022-11-21T19:03:21.559Z,98727.31
2022-11-21T19:08:24.509Z,98720.56
2022-11-21T19:13:28.306Z,98710.94
2022-11-21T19:18:37.839Z,98702.72
2022-11-21T19:23:44.280Z,98686.09
2022-11-21T19:28:46.504Z,98691.19
2022-11-21T19:33:48.430Z,98682.25
2022-11-21T19:38:51.728Z,98667.16
2022-11-21T19:43:56.484Z,98655.72
2022-11-21T19:48:59.407Z,98632.09
2022-11-21T19:54:09.359Z,98623.16
2022-11-21T19:59:12.888Z,98618.84
2022-11-21T20:04:14.810Z,98609.91
2022-11-21T20:09:22.387Z,98594.84
2022-11-21T20:14:24.469Z,98597.50
2022-11-21T20:19:27.404Z,98595.94
2022-11-21T20:24:29.928Z,98596.91
2022-11-21T20:29:31.957Z,98595.22
2022-11-21T20:34:36.179Z,98587.75
2022-11-21T20:39:38.080Z,98587.97
2022-11-21T20:50:02.235Z,98567.47
2022-11-21T20:55:04.459Z,98570.97
2022-11-21T21:00:06.864Z,98577.59
2022-11-21T21:05:09.097Z,98589.41
2022-11-21T21:10:11.354Z,98570.47
2022-11-21T21:15:13.231Z,98572.56
2022-11-21T21:20:15.428Z,98558.56
2022-11-21T21:25:17.427Z,98560.25
2022-11-21T21:30:19.806Z,98555.94
2022-11-21T21:35:21.799Z,98551.69
2022-11-21T21:40:23.742Z,98561.22
2022-11-21T21:45:25.955Z,98571.13
2022-11-21T21:50:27.994Z,98589.41
2022-11-21T21:55:30.137Z,98584.94
2022-11-21T22:00:32.460Z,98584.84
2022-11-21T22:05:34.537Z,98580.03
2022-11-21T22:10:36.564Z,98576.16
2022-11-21T22:15:38.749Z,98564.09
2022-11-21T22:20:40.669Z,98547.00
2022-11-21T22:25:42.789Z,98546.25
2022-11-21T22:30:54.468Z,98555.94
2022-11-21T22:36:04.806Z,98549.91
2022-11-21T22:41:21.856Z,98552.56
2022-11-21T22:46:24.992Z,98553.50
2022-11-21T22:51:31.887Z,98552.66
2022-11-21T22:56:33.910Z,98549.03
2022-11-21T23:01:35.848Z,98527.81
2022-11-21T23:06:37.741Z,98536.75
2022-11-21T23:11:41.003Z,98524.34
2022-11-21T23:16:43.147Z,98528.81
2022-11-21T23:21:45.303Z,98535.94
2022-11-21T23:26:47.126Z,98530.75
2022-11-21T23:31:48.905Z,98536.75
2022-11-21T23:36:50.789Z,98530.63
2022-11-21T23:41:52.749Z,98538.44
2022-11-21T23:46:54.869Z,98537.59
2022-11-21T23:51:56.798Z,98550.75
2022-11-21T23:56:58.719Z,98558.56
